Time;durP1;ratioP1;P1;durP2;ratioP2;P2;SDS_P1;SDS_P2;PMS_P1;PMS_P2;Temp;Humidity;BMP_temperature;BMP_pressure;BME280_temperature;BME280_humidity;BME280_pressure;Samples;Min_cycle;Max_cycle;Signal;HPM_P1;HPM_P2
2023/10/19 00:01:37;;;;;;;0.13;0.00;;;;;;;;;;5283647;28;20028;-74
2023/10/19 00:04:10;;;;;;;0.10;0.03;;;;;;;;;;5284474;28;20012;-74
2023/10/19 00:06:41;;;;;;;0.20;0.10;;;;;;;;;;5284458;28;20024;-73
2023/10/19 00:09:12;;;;;;;0.10;0.10;;;;;;;;;;5283674;28;20027;-73
2023/10/19 00:11:43;;;;;;;0.17;0.03;;;;;;;;;;5284247;28;20036;-74
2023/10/19 00:14:18;;;;;;;0.30;0.10;;;;;;;;;;5284375;28;20458;-74
2023/10/19 00:17:00;;;;;;;0.10;0.10;;;;;;;;;;5283228;28;20024;-73
2023/10/19 00:19:38;;;;;;;0.30;0.10;;;;;;;;;;5284169;28;20024;-74
2023/10/19 00:22:15;;;;;;;0.20;0.10;;;;;;;;;;5283463;28;20073;-74
2023/10/19 00:24:46;;;;;;;0.20;0.10;;;;;;;;;;5283955;28;20521;-74
2023/10/19 00:27:19;;;;;;;0.20;0.10;;;;;;;;;;5284573;28;20020;-74
2023/10/19 00:29:55;;;;;;;0.10;0.00;;;;;;;;;;5282957;28;20263;-74
2023/10/19 00:32:29;;;;;;;0.10;0.10;;;;;;;;;;5283949;28;20112;-74
2023/10/19 00:35:07;;;;;;;0.20;0.10;;;;;;;;;;5283919;28;20460;-74
2023/10/19 00:37:42;;;;;;;0.20;0.10;;;;;;;;;;5283137;28;20018;-74
2023/10/19 00:40:33;;;;;;;0.10;0.05;;;;;;;;;;5283777;28;20081;-73
2023/10/19 00:43:10;;;;;;;0.10;0.05;;;;;;;;;;5282409;28;20497;-74
2023/10/19 00:45:41;;;;;;;0.10;0.00;;;;;;;;;;5283607;28;20039;-73
2023/10/19 00:48:13;;;;;;;0.30;0.10;;;;;;;;;;5283466;28;20053;-74
2023/10/19 00:50:47;;;;;;;0.10;0.10;;;;;;;;;;5282686;28;20047;-73
2023/10/19 00:53:18;;;;;;;0.10;0.00;;;;;;;;;;5283980;28;20383;-74
2023/10/19 00:55:52;;;;;;;0.10;0.05;;;;;;;;;;5283050;28;20035;-74
2023/10/19 00:58:29;;;;;;;0.08;0.00;;;;;;;;;;5283285;28;20017;-74
2023/10/19 01:01:00;;;;;;;0.05;0.00;;;;;;;;;;5283181;28;20025;-73
2023/10/19 01:03:36;;;;;;;0.00;0.00;;;;;;;;;;5283666;28;20021;-74
2023/10/19 01:06:12;;;;;;;0.00;0.00;;;;;;;;;;5282575;28;20012;-74
2023/10/19 01:08:44;;;;;;;0.00;0.00;;;;;;;;;;5283285;28;20047;-73
2023/10/19 01:11:19;;;;;;;0.00;0.00;;;;;;;;;;5282408;28;20024;-74
2023/10/19 01:13:51;;;;;;;0.00;0.00;;;;;;;;;;5282800;28;20035;-73
2023/10/19 01:16:23;;;;;;;0.00;0.00;;;;;;;;;;5283379;28;20027;-73
2023/10/19 01:18:54;;;;;;;0.00;0.00;;;;;;;;;;5282199;28;20012;-72
2023/10/19 01:21:35;;;;;;;0.00;0.00;;;;;;;;;;5283165;28;20044;-73
2023/10/19 01:24:07;;;;;;;0.10;0.00;;;;;;;;;;5282969;28;20027;-73
2023/10/19 01:26:39;;;;;;;0.00;0.00;;;;;;;;;;5282007;28;20020;-72
2023/10/19 01:29:14;;;;;;;0.00;0.00;;;;;;;;;;5282719;28;20031;-73
2023/10/19 01:32:19;;;;;;;0.00;0.00;;;;;;;;;;5282476;28;20283;-73
2023/10/19 01:34:43;;;;;;;0.10;0.00;;;;;;;;;;5282514;28;20068;-72
2023/10/19 01:37:14;;;;;;;0.10;0.00;;;;;;;;;;5282531;28;20470;-73
2023/10/19 01:39:46;;;;;;;0.00;0.00;;;;;;;;;;5281113;28;20641;-73
2023/10/19 01:42:17;;;;;;;0.00;0.00;;;;;;;;;;5282158;28;20723;-73
2023/10/19 01:44:48;;;;;;;0.00;0.00;;;;;;;;;;5281093;28;20273;-73
2023/10/19 01:47:20;;;;;;;0.00;0.00;;;;;;;;;;5279672;28;20048;-73
2023/10/19 01:49:52;;;;;;;0.00;0.00;;;;;;;;;;5279635;28;20263;-72
2023/10/19 01:52:24;;;;;;;0.00;0.00;;;;;;;;;;5280857;28;20021;-73
2023/10/19 01:55:02;;;;;;;0.00;0.00;;;;;;;;;;5279598;28;20150;-72
2023/10/19 01:57:34;;;;;;;0.00;0.00;;;;;;;;;;5280401;28;20032;-73
2023/10/19 02:00:11;;;;;;;0.00;0.00;;;;;;;;;;5280811;28;20383;-73
2023/10/19 02:02:42;;;;;;;0.00;0.00;;;;;;;;;;5281390;28;20027;-73
2023/10/19 02:05:15;;;;;;;0.00;0.00;;;;;;;;;;5282216;28;20467;-73
2023/10/19 02:07:47;;;;;;;0.00;0.00;;;;;;;;;;5281043;28;20078;-73
2023/10/19 02:10:18;;;;;;;0.00;0.00;;;;;;;;;;5282401;28;20012;-73
2023/10/19 02:12:55;;;;;;;0.00;0.00;;;;;;;;;;5281660;28;20085;-73
2023/10/19 02:15:26;;;;;;;0.00;0.00;;;;;;;;;;5281304;28;20023;-73
2023/10/19 02:18:01;;;;;;;0.00;0.00;;;;;;;;;;5282039;28;20390;-73
2023/10/19 02:20:33;;;;;;;0.00;0.00;;;;;;;;;;5282203;28;20027;-73
2023/10/19 02:23:04;;;;;;;0.00;0.00;;;;;;;;;;5281102;28;20024;-73
2023/10/19 02:25:38;;;;;;;0.00;0.00;;;;;;;;;;5281775;28;20070;-73
2023/10/19 02:28:09;;;;;;;0.00;0.00;;;;;;;;;;5281960;28;20267;-73
2023/10/19 02:30:42;;;;;;;0.00;0.00;;;;;;;;;;5280962;28;20036;-73
2023/10/19 02:33:13;;;;;;;0.00;0.00;;;;;;;;;;5281880;28;20088;-73
2023/10/19 02:35:44;;;;;;;0.00;0.00;;;;;;;;;;5281018;28;20107;-74
2023/10/19 02:38:16;;;;;;;0.00;0.00;;;;;;;;;;5281904;28;20017;-73
2023/10/19 02:40:47;;;;;;;0.00;0.00;;;;;;;;;;5281618;28;20454;-73
2023/10/19 02:43:19;;;;;;;0.00;0.00;;;;;;;;;;5281454;28;20031;-73
2023/10/19 02:45:51;;;;;;;0.00;0.00;;;;;;;;;;5281446;28;20059;-74
2023/10/19 02:48:24;;;;;;;0.00;0.00;;;;;;;;;;5281870;28;20071;-73
2023/10/19 02:50:55;;;;;;;0.00;0.00;;;;;;;;;;5281070;28;20036;-73
2023/10/19 02:53:27;;;;;;;0.00;0.00;;;;;;;;;;5281747;28;20032;-73
2023/10/19 02:56:01;;;;;;;0.00;0.00;;;;;;;;;;5281420;28;20044;-73
2023/10/19 02:58:32;;;;;;;0.00;0.00;;;;;;;;;;5280702;28;20463;-73
2023/10/19 03:01:11;;;;;;;0.10;0.00;;;;;;;;;;5281439;28;20028;-73
2023/10/19 03:03:43;;;;;;;0.00;0.00;;;;;;;;;;5281309;28;20306;-74
2023/10/19 03:06:19;;;;;;;0.00;0.00;;;;;;;;;;5281330;28;20063;-73
2023/10/19 03:09:04;;;;;;;0.00;0.00;;;;;;;;;;5285144;28;20496;-74
2023/10/19 03:11:35;;;;;;;0.00;0.00;;;;;;;;;;5284727;28;20138;-73
2023/10/19 03:14:07;;;;;;;0.00;0.00;;;;;;;;;;5285455;28;20038;-73
2023/10/19 03:16:42;;;;;;;0.00;0.00;;;;;;;;;;5285177;28;20263;-73
2023/10/19 03:19:13;;;;;;;0.00;0.00;;;;;;;;;;5284548;28;20020;-73
2023/10/19 03:21:48;;;;;;;0.00;0.00;;;;;;;;;;5285152;28;20100;-74
2023/10/19 03:29:53;;;;;;;0.00;0.00;;;;;;;;;;5284671;28;20028;-73
2023/10/19 03:32:32;;;;;;;0.00;0.00;;;;;;;;;;5284452;28;20029;-73
2023/10/19 03:35:04;;;;;;;0.00;0.00;;;;;;;;;;5285254;28;20371;-73
2023/10/19 03:37:36;;;;;;;0.00;0.00;;;;;;;;;;5284909;28;20095;-73
2023/10/19 03:40:09;;;;;;;0.00;0.00;;;;;;;;;;5284100;28;20555;-72
2023/10/19 03:42:40;;;;;;;0.00;0.00;;;;;;;;;;5284952;28;20020;-73
2023/10/19 03:45:14;;;;;;;0.00;0.00;;;;;;;;;;5284965;28;20013;-73
2023/10/19 03:47:49;;;;;;;0.00;0.00;;;;;;;;;;5283474;28;20051;-73
2023/10/19 03:50:20;;;;;;;0.20;0.00;;;;;;;;;;5285023;28;20021;-72
2023/10/19 03:52:52;;;;;;;0.00;0.00;;;;;;;;;;5284434;28;20028;-73
2023/10/19 03:55:23;;;;;;;0.20;0.10;;;;;;;;;;5283833;28;20017;-73
2023/10/19 03:57:54;;;;;;;0.23;0.00;;;;;;;;;;5284492;28;20113;-73
2023/10/19 04:00:28;;;;;;;1.27;0.10;;;;;;;;;;5283741;28;20263;-73
2023/10/19 04:02:59;;;;;;;0.00;0.00;;;;;;;;;;5284447;28;20016;-73
2023/10/19 04:05:31;;;;;;;0.20;0.00;;;;;;;;;;5284471;28;20540;-73
2023/10/19 04:08:12;;;;;;;0.17;0.05;;;;;;;;;;5283886;28;20028;-73
2023/10/19 04:11:07;;;;;;;0.40;0.00;;;;;;;;;;5284226;28;20040;-73
2023/10/19 04:13:38;;;;;;;0.57;0.00;;;;;;;;;;5284069;28;20016;-73
2023/10/19 04:16:10;;;;;;;0.10;0.00;;;;;;;;;;5283343;28;20021;-72
2023/10/19 04:18:43;;;;;;;0.55;0.10;;;;;;;;;;5284236;28;20024;-73
2023/10/19 04:21:15;;;;;;;0.20;0.00;;;;;;;;;;5283191;28;20020;-73
2023/10/19 04:23:46;;;;;;;1.17;0.10;;;;;;;;;;5283774;28;20016;-73
2023/10/19 04:26:18;;;;;;;0.20;0.10;;;;;;;;;;5283908;28;20032;-73
2023/10/19 04:28:49;;;;;;;0.10;0.00;;;;;;;;;;5282802;28;20013;-73
2023/10/19 04:31:23;;;;;;;0.07;0.00;;;;;;;;;;5284210;28;20032;-73
2023/10/19 04:33:54;;;;;;;0.50;0.10;;;;;;;;;;5283689;28;20269;-73
2023/10/19 04:36:27;;;;;;;0.90;0.00;;;;;;;;;;5282914;28;20020;-73
2023/10/19 04:38:59;;;;;;;0.20;0.08;;;;;;;;;;5283545;28;20016;-73
2023/10/19 04:41:31;;;;;;;0.10;0.00;;;;;;;;;;5283765;28;20091;-73
2023/10/19 04:44:02;;;;;;;0.40;0.10;;;;;;;;;;5282822;28;20096;-72
2023/10/19 04:46:33;;;;;;;0.25;0.00;;;;;;;;;;5283542;28;20058;-73
2023/10/19 04:49:04;;;;;;;0.70;0.10;;;;;;;;;;5283543;28;20016;-72
2023/10/19 04:51:38;;;;;;;1.38;0.00;;;;;;;;;;5282779;28;20028;-73
2023/10/19 04:54:10;;;;;;;0.65;0.10;;;;;;;;;;5283467;28;20020;-73
2023/10/19 04:56:41;;;;;;;0.47;0.00;;;;;;;;;;5282736;28;20031;-73
2023/10/19 04:59:12;;;;;;;0.10;0.00;;;;;;;;;;5283327;28;20029;-72
2023/10/19 05:01:43;;;;;;;0.60;0.00;;;;;;;;;;5283642;28;20689;-73
2023/10/19 05:04:16;;;;;;;0.20;0.00;;;;;;;;;;5282481;28;20095;-74
2023/10/19 05:06:48;;;;;;;0.20;0.00;;;;;;;;;;5282972;28;20387;-73
2023/10/19 05:09:19;;;;;;;0.20;0.00;;;;;;;;;;5283480;28;20027;-73
2023/10/19 05:11:52;;;;;;;0.40;0.10;;;;;;;;;;5281714;28;20120;-73
2023/10/19 05:14:24;;;;;;;0.50;0.10;;;;;;;;;;5283128;28;20017;-73
2023/10/19 05:16:55;;;;;;;0.90;0.05;;;;;;;;;;5282691;28;20414;-73
2023/10/19 05:19:26;;;;;;;0.40;0.10;;;;;;;;;;5282256;28;20107;-74
2023/10/19 05:21:57;;;;;;;1.27;0.10;;;;;;;;;;5282790;28;20263;-73
2023/10/19 05:24:29;;;;;;;0.65;0.10;;;;;;;;;;5282055;28;20258;-75
2023/10/19 05:27:01;;;;;;;0.60;0.10;;;;;;;;;;5282857;28;20474;-73
2023/10/19 05:29:35;;;;;;;0.52;0.10;;;;;;;;;;5282302;28;20028;-73
2023/10/19 05:32:09;;;;;;;3.13;0.25;;;;;;;;;;5281962;28;20028;-73
2023/10/19 05:34:40;;;;;;;1.23;0.10;;;;;;;;;;5282570;28;20017;-73
2023/10/19 05:37:12;;;;;;;0.75;0.10;;;;;;;;;;5282392;28;20451;-72
2023/10/19 05:39:44;;;;;;;0.85;0.13;;;;;;;;;;5281488;28;20124;-72
2023/10/19 05:42:15;;;;;;;0.20;0.00;;;;;;;;;;5282856;28;20632;-73
2023/10/19 05:44:46;;;;;;;0.53;0.10;;;;;;;;;;5282152;28;20107;-73
2023/10/19 05:47:17;;;;;;;0.90;0.10;;;;;;;;;;5281593;28;20291;-73
2023/10/19 05:49:48;;;;;;;0.25;0.05;;;;;;;;;;5282172;28;20266;-73
2023/10/19 05:52:20;;;;;;;0.52;0.15;;;;;;;;;;5282582;28;20293;-73
2023/10/19 05:54:52;;;;;;;0.40;0.10;;;;;;;;;;5281243;28;20273;-74
2023/10/19 05:57:24;;;;;;;0.50;0.10;;;;;;;;;;5282163;28;20271;-74
2023/10/19 05:59:56;;;;;;;0.45;0.10;;;;;;;;;;5281089;28;20289;-73
2023/10/19 06:02:27;;;;;;;0.50;0.10;;;;;;;;;;5282202;28;20027;-74
2023/10/19 06:04:58;;;;;;;1.03;0.10;;;;;;;;;;5281997;28;20259;-74
2023/10/19 06:07:29;;;;;;;0.70;0.10;;;;;;;;;;5281244;28;20341;-73
2023/10/19 06:10:04;;;;;;;1.05;0.20;;;;;;;;;;5281861;28;20439;-74
2023/10/19 06:12:37;;;;;;;0.95;0.10;;;;;;;;;;5281891;28;20270;-73
2023/10/19 06:15:10;;;;;;;0.47;0.10;;;;;;;;;;5280962;28;20379;-73
2023/10/19 06:17:42;;;;;;;0.77;0.13;;;;;;;;;;5281785;28;20109;-72
2023/10/19 06:20:23;;;;;;;0.65;0.10;;;;;;;;;;5281603;28;20101;-75
2023/10/19 06:23:04;;;;;;;0.88;0.20;;;;;;;;;;5281046;28;20482;-73
2023/10/19 06:25:35;;;;;;;0.40;0.10;;;;;;;;;;5282083;28;20016;-74
2023/10/19 06:28:07;;;;;;;0.30;0.10;;;;;;;;;;5281183;28;20024;-74
2023/10/19 06:30:40;;;;;;;0.20;0.00;;;;;;;;;;5280829;28;20035;-74
2023/10/19 06:33:11;;;;;;;0.20;0.10;;;;;;;;;;5281757;28;20025;-73
2023/10/19 06:35:42;;;;;;;0.30;0.10;;;;;;;;;;5280934;28;20374;-74
2023/10/19 06:38:14;;;;;;;0.70;0.10;;;;;;;;;;5278316;28;20031;-73
2023/10/19 06:40:46;;;;;;;0.40;0.08;;;;;;;;;;5281388;28;20020;-73
2023/10/19 06:43:17;;;;;;;0.93;0.10;;;;;;;;;;5284238;28;20046;-72
2023/10/19 06:45:48;;;;;;;0.50;0.10;;;;;;;;;;5285428;28;20020;-73
2023/10/19 06:48:19;;;;;;;1.00;0.10;;;;;;;;;;5285621;28;20502;-75
2023/10/19 06:50:51;;;;;;;0.90;0.13;;;;;;;;;;5284624;28;20039;-75
2023/10/19 06:53:22;;;;;;;0.55;0.08;;;;;;;;;;5284558;28;20012;-74
2023/10/19 06:55:54;;;;;;;0.57;0.10;;;;;;;;;;5284572;28;20024;-74
2023/10/19 06:58:28;;;;;;;1.00;0.10;;;;;;;;;;5285527;28;20016;-74
2023/10/19 07:01:05;;;;;;;0.75;0.10;;;;;;;;;;5285697;28;20024;-73
2023/10/19 07:03:36;;;;;;;1.38;0.17;;;;;;;;;;5284274;28;20023;-75
2023/10/19 07:06:13;;;;;;;0.98;0.10;;;;;;;;;;5284879;28;20463;-74
2023/10/19 07:08:44;;;;;;;1.02;0.03;;;;;;;;;;5284610;28;20059;-75
2023/10/19 07:11:15;;;;;;;0.88;0.10;;;;;;;;;;5284239;28;20024;-75
2023/10/19 07:13:46;;;;;;;1.30;0.10;;;;;;;;;;5284136;28;20012;-74
2023/10/19 07:16:19;;;;;;;0.47;0.10;;;;;;;;;;5285501;28;20775;-73
2023/10/19 07:18:51;;;;;;;0.68;0.10;;;;;;;;;;5284071;28;20024;-73
2023/10/19 07:21:22;;;;;;;0.80;0.10;;;;;;;;;;5285049;28;20093;-73
2023/10/19 07:23:55;;;;;;;1.45;0.10;;;;;;;;;;5284801;28;20017;-73
2023/10/19 07:26:31;;;;;;;0.57;0.10;;;;;;;;;;5284430;28;20025;-73
2023/10/19 07:29:02;;;;;;;0.73;0.10;;;;;;;;;;5284993;28;20023;-74
2023/10/19 07:31:33;;;;;;;1.20;0.10;;;;;;;;;;5283854;28;20028;-74
2023/10/19 07:34:05;;;;;;;1.07;0.30;;;;;;;;;;5285156;28;20460;-73
2023/10/19 07:36:36;;;;;;;1.58;0.25;;;;;;;;;;5284890;28;20286;-74
2023/10/19 07:39:13;;;;;;;2.17;0.22;;;;;;;;;;5283483;28;20025;-74
2023/10/19 07:41:46;;;;;;;0.73;0.10;;;;;;;;;;5284453;28;20103;-73
2023/10/19 07:44:17;;;;;;;0.98;0.20;;;;;;;;;;5284252;28;20052;-74
2023/10/19 07:46:49;;;;;;;0.43;0.10;;;;;;;;;;5283426;28;20072;-74
2023/10/19 07:49:21;;;;;;;0.63;0.20;;;;;;;;;;5284499;28;20035;-74
2023/10/19 07:51:53;;;;;;;2.47;0.30;;;;;;;;;;5281483;28;20509;-73
2023/10/19 07:54:24;;;;;;;1.17;0.30;;;;;;;;;;5283157;28;20044;-73
2023/10/19 07:56:55;;;;;;;1.80;0.30;;;;;;;;;;5284319;28;20033;-72
2023/10/19 07:59:27;;;;;;;2.92;0.28;;;;;;;;;;5283623;28;20454;-72
2023/10/19 08:02:02;;;;;;;2.38;0.40;;;;;;;;;;5284214;28;20033;-72
2023/10/19 08:04:33;;;;;;;1.30;0.25;;;;;;;;;;5284261;28;20025;-72
2023/10/19 08:07:04;;;;;;;2.33;0.30;;;;;;;;;;5283265;28;20238;-73
2023/10/19 08:09:35;;;;;;;0.75;0.30;;;;;;;;;;5284493;28;20020;-73
2023/10/19 08:12:08;;;;;;;3.30;0.30;;;;;;;;;;5284196;28;20040;-73
2023/10/19 08:14:40;;;;;;;2.25;0.20;;;;;;;;;;5283289;28;20293;-72
2023/10/19 08:17:11;;;;;;;1.53;0.30;;;;;;;;;;5284049;28;20029;-72
2023/10/19 08:19:42;;;;;;;2.20;0.25;;;;;;;;;;5284021;28;20277;-73
2023/10/19 08:22:14;;;;;;;1.77;0.20;;;;;;;;;;5283301;28;20274;-72
2023/10/19 08:24:49;;;;;;;3.10;0.30;;;;;;;;;;5283724;28;20096;-73
2023/10/19 08:27:21;;;;;;;1.45;0.30;;;;;;;;;;5283562;28;20024;-73
2023/10/19 08:29:52;;;;;;;1.30;0.20;;;;;;;;;;5283228;28;20020;-73
2023/10/19 08:32:24;;;;;;;2.15;0.30;;;;;;;;;;5284006;28;20036;-73
2023/10/19 08:34:56;;;;;;;2.55;0.30;;;;;;;;;;5283171;28;20016;-74
2023/10/19 08:37:27;;;;;;;2.22;0.35;;;;;;;;;;5283862;28;20100;-72
2023/10/19 08:39:59;;;;;;;1.98;0.20;;;;;;;;;;5283585;28;20012;-74
2023/10/19 08:42:30;;;;;;;2.28;0.38;;;;;;;;;;5282681;28;20040;-73
2023/10/19 08:45:02;;;;;;;2.47;0.30;;;;;;;;;;5283725;28;20504;-72
2023/10/19 08:47:36;;;;;;;2.00;0.30;;;;;;;;;;5283408;28;20045;-74
2023/10/19 08:50:08;;;;;;;2.58;0.30;;;;;;;;;;5282527;28;20403;-72
2023/10/19 08:52:41;;;;;;;2.17;0.30;;;;;;;;;;5283255;28;20019;-72
2023/10/19 08:55:13;;;;;;;4.53;0.35;;;;;;;;;;5283350;28;20060;-73
2023/10/19 08:57:44;;;;;;;1.83;0.30;;;;;;;;;;5282438;28;20048;-74
2023/10/19 09:00:19;;;;;;;1.60;0.43;;;;;;;;;;5283435;28;20450;-74
2023/10/19 09:02:51;;;;;;;3.00;0.30;;;;;;;;;;5281801;28;20482;-74
2023/10/19 09:05:22;;;;;;;2.95;0.30;;;;;;;;;;5282378;28;20021;-73
2023/10/19 09:07:59;;;;;;;2.45;0.60;;;;;;;;;;5282450;28;20024;-73
2023/10/19 09:10:36;;;;;;;2.60;0.40;;;;;;;;;;5282208;28;20029;-74
2023/10/19 09:13:12;;;;;;;2.97;0.50;;;;;;;;;;5282908;28;20032;-74
2023/10/19 09:15:43;;;;;;;2.90;0.52;;;;;;;;;;5282793;28;20078;-74
2023/10/19 09:18:15;;;;;;;2.20;0.40;;;;;;;;;;5282102;28;20020;-73
2023/10/19 09:20:53;;;;;;;3.08;0.40;;;;;;;;;;5282199;28;20023;-74
2023/10/19 09:23:27;;;;;;;2.10;0.30;;;;;;;;;;5282471;28;20031;-74
2023/10/19 09:26:07;;;;;;;3.25;0.40;;;;;;;;;;5281779;28;20020;-72
2023/10/19 09:28:39;;;;;;;3.78;0.40;;;;;;;;;;5282571;28;20028;-74
2023/10/19 09:31:10;;;;;;;2.17;0.40;;;;;;;;;;5281403;28;20471;-74
2023/10/19 09:33:43;;;;;;;1.93;0.30;;;;;;;;;;5282633;28;20024;-74
2023/10/19 09:36:15;;;;;;;4.43;0.40;;;;;;;;;;5282324;28;20282;-74
2023/10/19 09:38:53;;;;;;;3.83;0.40;;;;;;;;;;5281833;28;20021;-74
2023/10/19 09:41:30;;;;;;;3.70;0.40;;;;;;;;;;5282552;28;20103;-74
2023/10/19 09:44:04;;;;;;;3.35;0.40;;;;;;;;;;5281985;28;20149;-73
2023/10/19 09:46:38;;;;;;;3.28;0.52;;;;;;;;;;5281353;28;20141;-73
2023/10/19 09:49:13;;;;;;;5.75;0.50;;;;;;;;;;5282208;28;20109;-75
2023/10/19 09:51:44;;;;;;;4.93;0.88;;;;;;;;;;5281083;28;20035;-74
2023/10/19 09:54:20;;;;;;;4.50;0.55;;;;;;;;;;5282185;28;20129;-74
2023/10/19 09:56:55;;;;;;;6.00;0.70;;;;;;;;;;5281808;28;20126;-72
2023/10/19 09:59:34;;;;;;;2.95;0.40;;;;;;;;;;5281224;28;20044;-72
2023/10/19 10:02:12;;;;;;;3.78;0.40;;;;;;;;;;5281930;28;20043;-71
2023/10/19 10:04:45;;;;;;;2.83;0.50;;;;;;;;;;5281908;28;20075;-73
2023/10/19 10:07:17;;;;;;;3.95;0.50;;;;;;;;;;5281597;28;20420;-72
2023/10/19 10:09:48;;;;;;;3.72;0.50;;;;;;;;;;5281498;28;20024;-73
2023/10/19 10:12:23;;;;;;;3.85;0.60;;;;;;;;;;5281033;28;20028;-73
2023/10/19 10:14:58;;;;;;;4.82;0.50;;;;;;;;;;5281458;28;20229;-72
2023/10/19 10:17:32;;;;;;;3.50;0.40;;;;;;;;;;5282021;28;20028;-73
2023/10/19 10:20:24;;;;;;;3.22;0.73;;;;;;;;;;5281149;28;20028;-74
2023/10/19 10:23:15;;;;;;;4.25;0.60;;;;;;;;;;5277738;28;20103;-73
2023/10/19 10:25:51;;;;;;;3.33;0.35;;;;;;;;;;5277133;28;20108;-73
2023/10/19 10:28:23;;;;;;;2.70;0.50;;;;;;;;;;5281151;28;20036;-74
2023/10/19 10:31:13;;;;;;;2.50;0.50;;;;;;;;;;5280290;28;20688;-73
2023/10/19 10:33:45;;;;;;;5.13;0.73;;;;;;;;;;5281560;28;20105;-74
2023/10/19 10:36:18;;;;;;;6.22;0.50;;;;;;;;;;5281274;28;20498;-74
2023/10/19 10:38:50;;;;;;;7.40;0.60;;;;;;;;;;5281306;28;20058;-74
2023/10/19 10:41:21;;;;;;;5.78;0.63;;;;;;;;;;5281108;28;20367;-74
2023/10/19 10:43:53;;;;;;;6.63;0.80;;;;;;;;;;5281247;28;20124;-73
2023/10/19 10:46:27;;;;;;;6.32;0.70;;;;;;;;;;5281376;28;20093;-74
2023/10/19 10:48:58;;;;;;;5.63;0.55;;;;;;;;;;5280677;28;20387;-74
2023/10/19 10:51:29;;;;;;;10.75;0.88;;;;;;;;;;5281196;28;20031;-73
2023/10/19 10:54:00;;;;;;;5.80;0.87;;;;;;;;;;5281702;28;20016;-74
2023/10/19 10:56:31;;;;;;;6.82;0.40;;;;;;;;;;5280551;28;20365;-74
2023/10/19 10:59:11;;;;;;;3.90;0.50;;;;;;;;;;5280710;28;20356;-74
2023/10/19 11:01:43;;;;;;;5.00;0.57;;;;;;;;;;5281250;28;20317;-74
2023/10/19 11:04:16;;;;;;;8.00;0.50;;;;;;;;;;5279899;28;20028;-74
2023/10/19 11:06:50;;;;;;;5.50;0.50;;;;;;;;;;5280441;28;20028;-76
2023/10/19 11:09:22;;;;;;;3.63;0.50;;;;;;;;;;5280564;28;20063;-76
2023/10/19 11:11:53;;;;;;;6.45;0.75;;;;;;;;;;5280830;28;20475;-75
2023/10/19 11:14:25;;;;;;;5.03;0.55;;;;;;;;;;5281244;28;20019;-75
2023/10/19 11:17:11;;;;;;;6.13;0.80;;;;;;;;;;5280624;28;20024;-74
2023/10/19 11:19:42;;;;;;;5.72;0.50;;;;;;;;;;5281265;28;20024;-74
2023/10/19 11:22:13;;;;;;;4.57;0.60;;;;;;;;;;5280695;28;20103;-75
2023/10/19 11:24:44;;;;;;;5.38;0.60;;;;;;;;;;5279591;28;20263;-76
2023/10/19 11:27:26;;;;;;;5.97;0.70;;;;;;;;;;5281423;28;20024;-75
2023/10/19 11:29:58;;;;;;;7.32;1.38;;;;;;;;;;5285215;28;20259;-75
2023/10/19 11:32:37;;;;;;;3.85;0.43;;;;;;;;;;5283856;28;20117;-75
2023/10/19 11:35:09;;;;;;;8.38;0.77;;;;;;;;;;5284697;28;20013;-75
2023/10/19 11:37:48;;;;;;;4.55;0.73;;;;;;;;;;5284107;28;20352;-75
2023/10/19 11:40:23;;;;;;;6.25;0.60;;;;;;;;;;5285191;28;20024;-74
2023/10/19 11:42:58;;;;;;;7.15;0.73;;;;;;;;;;5284849;28;20397;-74
2023/10/19 11:45:29;;;;;;;5.72;0.52;;;;;;;;;;5283812;28;20031;-75
2023/10/19 11:48:01;;;;;;;7.97;0.70;;;;;;;;;;5284527;28;20487;-74
2023/10/19 11:50:32;;;;;;;5.40;0.60;;;;;;;;;;5284689;28;20029;-75
2023/10/19 11:53:05;;;;;;;5.20;0.60;;;;;;;;;;5283679;28;20024;-74
2023/10/19 11:55:36;;;;;;;10.15;0.80;;;;;;;;;;5284507;28;20350;-73
2023/10/19 11:58:11;;;;;;;5.50;0.60;;;;;;;;;;5284297;28;20107;-73
2023/10/19 12:00:43;;;;;;;9.30;0.90;;;;;;;;;;5283619;28;20267;-73
2023/10/19 12:03:14;;;;;;;9.85;1.27;;;;;;;;;;5284521;28;20020;-74
2023/10/19 12:05:46;;;;;;;12.82;1.35;;;;;;;;;;5283185;28;20374;-74
2023/10/19 12:08:17;;;;;;;8.27;1.07;;;;;;;;;;5284687;28;20506;-74
2023/10/19 12:10:49;;;;;;;7.75;0.95;;;;;;;;;;5283745;28;20358;-75
2023/10/19 12:13:20;;;;;;;9.00;0.80;;;;;;;;;;5283950;28;20021;-74
2023/10/19 12:15:51;;;;;;;6.35;0.93;;;;;;;;;;5283970;28;20127;-74
2023/10/19 12:18:23;;;;;;;12.03;1.20;;;;;;;;;;5284364;28;20495;-74
2023/10/19 12:20:59;;;;;;;9.15;0.90;;;;;;;;;;5283298;28;20598;-75
2023/10/19 12:23:31;;;;;;;7.53;0.70;;;;;;;;;;5283988;28;20024;-74
2023/10/19 12:26:04;;;;;;;4.85;0.65;;;;;;;;;;5284087;28;20416;-74
2023/10/19 12:28:38;;;;;;;6.00;0.80;;;;;;;;;;5283135;28;20467;-74
2023/10/19 12:31:10;;;;;;;6.15;0.93;;;;;;;;;;5283935;28;20036;-74
2023/10/19 12:33:41;;;;;;;6.93;0.70;;;;;;;;;;5283066;28;20395;-75
2023/10/19 12:38:59;;;;;;;6.00;0.95;;;;;;;;;;5282924;28;20277;-75
2023/10/19 12:41:31;;;;;;;8.35;1.27;;;;;;;;;;5282575;28;20024;-74
2023/10/19 12:44:08;;;;;;;7.45;0.70;;;;;;;;;;5283624;28;20048;-74
2023/10/19 12:46:40;;;;;;;7.40;0.60;;;;;;;;;;5283495;28;20052;-74
2023/10/19 12:49:16;;;;;;;8.80;0.80;;;;;;;;;;5282413;28;20113;-74
2023/10/19 12:51:47;;;;;;;6.47;0.70;;;;;;;;;;5282494;28;20028;-74
2023/10/19 12:54:18;;;;;;;5.35;0.85;;;;;;;;;;5283445;28;20023;-74
2023/10/19 12:56:52;;;;;;;5.00;0.77;;;;;;;;;;5282174;28;20126;-74
2023/10/19 12:59:24;;;;;;;6.70;0.63;;;;;;;;;;5283419;28;20353;-75
2023/10/19 13:01:58;;;;;;;7.30;0.90;;;;;;;;;;5282350;28;20108;-75
2023/10/19 13:04:30;;;;;;;9.43;1.02;;;;;;;;;;5281933;28;20255;-75
2023/10/19 13:07:02;;;;;;;8.13;1.00;;;;;;;;;;5282158;28;20020;-74
2023/10/19 13:09:36;;;;;;;8.10;1.23;;;;;;;;;;5281298;28;20465;-74
2023/10/19 13:12:07;;;;;;;8.80;1.10;;;;;;;;;;5283023;28;20115;-73
2023/10/19 13:14:39;;;;;;;10.88;1.20;;;;;;;;;;5282829;28;20104;-75
2023/10/19 13:17:10;;;;;;;10.30;1.17;;;;;;;;;;5281823;28;20095;-75
2023/10/19 13:19:41;;;;;;;6.43;1.00;;;;;;;;;;5282649;28;20111;-74
2023/10/19 13:22:14;;;;;;;6.63;1.03;;;;;;;;;;5282682;28;20675;-75
2023/10/19 13:24:46;;;;;;;5.68;1.08;;;;;;;;;;5281724;28;20267;-75
2023/10/19 13:27:17;;;;;;;6.90;1.10;;;;;;;;;;5283047;28;20031;-74
2023/10/19 13:29:48;;;;;;;7.65;1.10;;;;;;;;;;5281454;28;20056;-74
2023/10/19 13:32:19;;;;;;;9.45;1.10;;;;;;;;;;5283104;28;20028;-77
2023/10/19 13:34:51;;;;;;;10.20;1.43;;;;;;;;;;5282261;28;20028;-73
2023/10/19 13:37:22;;;;;;;8.05;1.10;;;;;;;;;;5281985;28;20309;-74
2023/10/19 13:39:54;;;;;;;12.13;1.85;;;;;;;;;;5282001;28;20096;-73
2023/10/19 13:42:25;;;;;;;6.22;1.20;;;;;;;;;;5281779;28;20072;-74
2023/10/19 13:44:56;;;;;;;8.85;1.83;;;;;;;;;;5281645;28;20042;-73
2023/10/19 13:47:28;;;;;;;11.18;1.38;;;;;;;;;;5282193;28;20102;-73
2023/10/19 13:49:59;;;;;;;5.60;0.70;;;;;;;;;;5282262;28;20334;-75
2023/10/19 13:52:31;;;;;;;8.68;1.33;;;;;;;;;;5280724;28;20115;-74
2023/10/19 13:55:03;;;;;;;7.10;1.20;;;;;;;;;;5281532;28;20017;-74
2023/10/19 13:57:34;;;;;;;7.38;1.00;;;;;;;;;;5281407;28;20270;-74
2023/10/19 14:00:07;;;;;;;5.30;0.80;;;;;;;;;;5281183;28;20486;-74
2023/10/19 14:02:39;;;;;;;6.07;0.77;;;;;;;;;;5282272;28;20768;-74
2023/10/19 14:05:11;;;;;;;8.03;0.83;;;;;;;;;;5281241;28;20439;-74
2023/10/19 14:07:43;;;;;;;5.05;0.80;;;;;;;;;;5281700;28;20311;-74
2023/10/19 14:10:14;;;;;;;4.47;0.70;;;;;;;;;;5281821;28;20459;-74
2023/10/19 14:12:46;;;;;;;4.47;0.65;;;;;;;;;;5280556;28;20035;-74
2023/10/19 14:15:20;;;;;;;7.38;0.65;;;;;;;;;;5282119;28;20480;-74
2023/10/19 14:17:51;;;;;;;8.10;0.88;;;;;;;;;;5281279;28;20109;-74
2023/10/19 14:20:23;;;;;;;5.83;0.60;;;;;;;;;;5281535;28;20099;-74
2023/10/19 14:22:55;;;;;;;6.38;0.63;;;;;;;;;;5282101;28;20270;-74
2023/10/19 14:25:26;;;;;;;4.53;0.60;;;;;;;;;;5281554;28;20091;-72
2023/10/19 14:27:59;;;;;;;8.38;1.30;;;;;;;;;;5280395;28;20482;-71
2023/10/19 14:30:30;;;;;;;9.05;0.95;;;;;;;;;;5281543;28;20021;-71
2023/10/19 14:33:02;;;;;;;7.28;1.05;;;;;;;;;;5280496;28;20020;-71
2023/10/19 14:35:36;;;;;;;8.35;1.00;;;;;;;;;;5281358;28;20016;-71
2023/10/19 14:38:09;;;;;;;7.03;0.98;;;;;;;;;;5281509;28;20024;-71
2023/10/19 14:40:45;;;;;;;7.95;1.00;;;;;;;;;;5280369;28;20024;-71
2023/10/19 14:43:16;;;;;;;6.22;1.13;;;;;;;;;;5281446;28;20020;-70
2023/10/19 14:45:47;;;;;;;5.97;1.15;;;;;;;;;;5281325;28;20099;-71
2023/10/19 14:48:19;;;;;;;6.03;1.00;;;;;;;;;;5280737;28;20047;-71
2023/10/19 14:50:51;;;;;;;8.38;1.30;;;;;;;;;;5281046;28;20283;-71
2023/10/19 14:53:22;;;;;;;6.45;1.30;;;;;;;;;;5281465;28;20016;-71
2023/10/19 14:55:59;;;;;;;5.60;0.87;;;;;;;;;;5280452;28;20025;-70
2023/10/19 14:58:31;;;;;;;6.45;0.90;;;;;;;;;;5281297;28;20263;-71
2023/10/19 15:01:02;;;;;;;2.65;0.50;;;;;;;;;;5280921;28;20036;-71
2023/10/19 15:03:35;;;;;;;5.07;0.95;;;;;;;;;;5282570;28;20146;-72
2023/10/19 15:06:06;;;;;;;4.53;0.70;;;;;;;;;;5285620;28;20479;-72
2023/10/19 15:08:37;;;;;;;3.38;0.63;;;;;;;;;;5284819;28;20032;-72
2023/10/19 15:11:09;;;;;;;6.55;0.80;;;;;;;;;;5285392;28;20024;-72
2023/10/19 15:13:40;;;;;;;4.93;0.70;;;;;;;;;;5285423;28;20111;-71
2023/10/19 15:16:12;;;;;;;7.43;0.70;;;;;;;;;;5284383;28;20290;-71
2023/10/19 15:18:43;;;;;;;5.85;1.52;;;;;;;;;;5285270;28;20275;-72
2023/10/19 15:21:14;;;;;;;5.93;1.27;;;;;;;;;;5285154;28;20028;-71
2023/10/19 15:23:46;;;;;;;4.25;1.10;;;;;;;;;;5284025;28;20259;-72
2023/10/19 15:26:17;;;;;;;7.50;1.13;;;;;;;;;;5285309;28;20143;-71